sensor_id;sensor_type;location;lat;lon;timestamp;pressure;altitude;pressure_sealevel;temperature;humidity
62524;BME280;53689;56.878;60.672;2022-12-29T00:00:23;99056.88;;;22.76;22.26
62524;BME280;53689;56.878;60.672;2022-12-29T00:02:52;99055.19;;;22.75;21.97
62524;BME280;53689;56.878;60.672;2022-12-29T00:05:19;99058.75;;;22.76;21.98
62524;BME280;53689;56.878;60.672;2022-12-29T00:07:47;99048.78;;;22.76;21.59
62524;BME280;53689;56.878;60.672;2022-12-29T00:10:14;99049.34;;;22.71;20.68
62524;BME280;53689;56.878;60.672;2022-12-29T00:12:42;99056.88;;;22.76;21.70
62524;BME280;53689;56.878;60.672;2022-12-29T00:15:10;99047.09;;;22.75;21.78
62524;BME280;53689;56.878;60.672;2022-12-29T00:17:38;99045.06;;;22.77;22.17
62524;BME280;53689;56.878;60.672;2022-12-29T00:20:08;99045.06;;;22.77;22.17
62524;BME280;53689;56.878;60.672;2022-12-29T00:22:36;99051.31;;;22.78;21.96
62524;BME280;53689;56.878;60.672;2022-12-29T00:25:03;99051.47;;;22.76;20.76
62524;BME280;53689;56.878;60.672;2022-12-29T00:27:32;99041.06;;;22.73;21.79
62524;BME280;53689;56.878;60.672;2022-12-29T00:29:59;99053.53;;;22.74;21.09
62524;BME280;53689;56.878;60.672;2022-12-29T00:32:27;99052.50;;;22.75;21.39
62524;BME280;53689;56.878;60.672;2022-12-29T00:34:54;99045.91;;;22.78;21.65
62524;BME280;53689;56.878;60.672;2022-12-29T00:37:23;99047.78;;;22.77;21.36
62524;BME280;53689;56.878;60.672;2022-12-29T00:39:51;99040.03;;;22.74;18.65
62524;BME280;53689;56.878;60.672;2022-12-29T00:42:18;99040.88;;;22.75;22.46
62524;BME280;53689;56.878;60.672;2022-12-29T00:44:46;99040.88;;;22.75;20.77
62524;BME280;53689;56.878;60.672;2022-12-29T00:47:13;99049.53;;;22.70;20.87
62524;BME280;53689;56.878;60.672;2022-12-29T00:49:41;99051.47;;;22.61;22.47
62524;BME280;53689;56.878;60.672;2022-12-29T00:52:11;99047.41;;;22.65;21.56
62524;BME280;53689;56.878;60.672;2022-12-29T00:54:40;99046.84;;;22.70;22.39
62524;BME280;53689;56.878;60.672;2022-12-29T00:57:09;99043.50;;;22.68;20.92
62524;BME280;53689;56.878;60.672;2022-12-29T00:59:37;99047.47;;;22.72;21.25
62524;BME280;53689;56.878;60.672;2022-12-29T01:02:05;99049.53;;;22.70;21.34
62524;BME280;53689;56.878;60.672;2022-12-29T01:04:34;99036.59;;;22.65;22.14
62524;BME280;53689;56.878;60.672;2022-12-29T01:07:01;99039.09;;;22.67;21.10
62524;BME280;53689;56.878;60.672;2022-12-29T01:09:29;99049.34;;;22.71;21.36
62524;BME280;53689;56.878;60.672;2022-12-29T01:11:58;99051.38;;;22.69;20.81
62524;BME280;53689;56.878;60.672;2022-12-29T01:14:26;99046.47;;;22.73;22.19
62524;BME280;53689;56.878;60.672;2022-12-29T01:16:54;99043.28;;;22.69;20.24
62524;BME280;53689;56.878;60.672;2022-12-29T01:19:22;99042.09;;;22.72;21.97
62524;BME280;53689;56.878;60.672;2022-12-29T01:21:50;99050.44;;;22.62;22.07
62524;BME280;53689;56.878;60.672;2022-12-29T01:24:20;99051.94;;;22.65;22.44
62524;BME280;53689;56.878;60.672;2022-12-29T01:26:48;99047.88;;;22.69;22.88
62524;BME280;53689;56.878;60.672;2022-12-29T01:29:17;99045.81;;;22.71;23.05
62524;BME280;53689;56.878;60.672;2022-12-29T01:31:45;99044.97;;;22.70;22.55
62524;BME280;53689;56.878;60.672;2022-12-29T01:34:13;99041.63;;;22.68;21.86
62524;BME280;53689;56.878;60.672;2022-12-29T01:36:42;99051.03;;;22.72;21.32
62524;BME280;53689;56.878;60.672;2022-12-29T01:39:11;99052.59;;;22.67;20.41
62524;BME280;53689;56.878;60.672;2022-12-29T01:41:40;99044.97;;;22.70;21.70
62524;BME280;53689;56.878;60.672;2022-12-29T01:47:29;99036.59;;;22.65;20.86
62524;BME280;53689;56.878;60.672;2022-12-29T01:50:01;99042.81;;;22.66;21.94
62524;BME280;53689;56.878;60.672;2022-12-29T01:52:31;99045.81;;;22.71;22.03
62524;BME280;53689;56.878;60.672;2022-12-29T01:55:02;99041.78;;;22.67;22.25
62524;BME280;53689;56.878;60.672;2022-12-29T01:57:32;99043.50;;;22.68;22.00
62524;BME280;53689;56.878;60.672;2022-12-29T02:00:04;99044.50;;;22.67;22.29
62524;BME280;53689;56.878;60.672;2022-12-29T02:02:40;99039.09;;;22.67;22.25
62524;BME280;53689;56.878;60.672;2022-12-29T02:05:11;99041.34;;;22.63;21.18
62524;BME280;53689;56.878;60.672;2022-12-29T02:07:45;99040.81;;;22.68;21.96
62524;BME280;53689;56.878;60.672;2022-12-29T02:10:13;99040.81;;;22.68;21.04
62524;BME280;53689;56.878;60.672;2022-12-29T02:12:41;99040.97;;;22.66;21.43
62524;BME280;53689;56.878;60.672;2022-12-29T02:15:09;99045.34;;;22.67;21.43
62524;BME280;53689;56.878;60.672;2022-12-29T02:17:57;99042.47;;;22.69;22.06
62524;BME280;53689;56.878;60.672;2022-12-29T02:20:47;99043.50;;;22.68;21.82
62524;BME280;53689;56.878;60.672;2022-12-29T02:23:58;99040.97;;;22.66;21.80
62524;BME280;53689;56.878;60.672;2022-12-29T02:26:39;99036.59;;;22.65;20.79
62524;BME280;53689;56.878;60.672;2022-12-29T02:29:27;99030.34;;;22.65;22.27
62524;BME280;53689;56.878;60.672;2022-12-29T02:32:06;99026.53;;;22.59;19.66
62524;BME280;53689;56.878;60.672;2022-12-29T02:34:44;99029.06;;;22.61;19.01
62524;BME280;53689;56.878;60.672;2022-12-29T02:37:19;99032.03;;;22.66;20.95
62524;BME280;53689;56.878;60.672;2022-12-29T02:39:53;99031.75;;;22.61;21.03
62524;BME280;53689;56.878;60.672;2022-12-29T02:42:29;99040.03;;;22.59;20.53
62524;BME280;53689;56.878;60.672;2022-12-29T02:45:04;99034.47;;;22.61;22.14
62524;BME280;53689;56.878;60.672;2022-12-29T02:47:39;99034.47;;;22.61;21.39
62524;BME280;53689;56.878;60.672;2022-12-29T02:50:14;99043.75;;;22.58;20.79
62524;BME280;53689;56.878;60.672;2022-12-29T02:52:49;99028.13;;;22.15;22.19
62524;BME280;53689;56.878;60.672;2022-12-29T02:55:19;99037.19;;;22.37;21.80
62524;BME280;53689;56.878;60.672;2022-12-29T02:57:48;99037.63;;;22.49;21.46
62524;BME280;53689;56.878;60.672;2022-12-29T03:00:17;99042.66;;;22.52;20.89
62524;BME280;53689;56.878;60.672;2022-12-29T03:03:10;99048.03;;;22.52;21.12
62524;BME280;53689;56.878;60.672;2022-12-29T03:05:59;99047.91;;;22.45;21.33
62524;BME280;53689;56.878;60.672;2022-12-29T03:08:36;99043.34;;;22.46;19.75
62524;BME280;53689;56.878;60.672;2022-12-29T03:11:11;99044.75;;;22.42;19.70
62524;BME280;53689;56.878;60.672;2022-12-29T03:13:44;99039.63;;;22.47;20.87
62524;BME280;53689;56.878;60.672;2022-12-29T03:16:20;99041.38;;;22.25;19.42
62524;BME280;53689;56.878;60.672;2022-12-29T03:18:57;99044.53;;;22.28;21.11
62524;BME280;53689;56.878;60.672;2022-12-29T03:21:32;99041.19;;;22.41;20.58
62524;BME280;53689;56.878;60.672;2022-12-29T03:24:05;99039.34;;;22.42;21.03
62524;BME280;53689;56.878;60.672;2022-12-29T03:26:33;99037.69;;;22.41;21.66
62524;BME280;53689;56.878;60.672;2022-12-29T03:29:02;99033.09;;;22.41;19.70
62524;BME280;53689;56.878;60.672;2022-12-29T03:31:31;99027.91;;;22.40;19.95
62524;BME280;53689;56.878;60.672;2022-12-29T03:34:01;99033.41;;;22.47;21.30
62524;BME280;53689;56.878;60.672;2022-12-29T03:36:47;99024.22;;;22.56;21.87
62524;BME280;53689;56.878;60.672;2022-12-29T03:39:17;99029.16;;;22.52;21.50
62524;BME280;53689;56.878;60.672;2022-12-29T03:41:50;99023.56;;;22.54;19.96
62524;BME280;53689;56.878;60.672;2022-12-29T03:44:31;99023.09;;;22.50;18.79
62524;BME280;53689;56.878;60.672;2022-12-29T03:47:00;99018.34;;;22.52;20.17
62524;BME280;53689;56.878;60.672;2022-12-29T03:49:29;99017.34;;;22.53;19.25
62524;BME280;53689;56.878;60.672;2022-12-29T03:51:57;99020.69;;;22.55;21.36
62524;BME280;53689;56.878;60.672;2022-12-29T03:54:25;99023.94;;;22.51;21.25
62524;BME280;53689;56.878;60.672;2022-12-29T03:56:53;99027.09;;;22.54;19.90
62524;BME280;53689;56.878;60.672;2022-12-29T03:59:31;99027.09;;;22.54;21.64
62524;BME280;53689;56.878;60.672;2022-12-29T04:02:00;99026.84;;;22.49;18.67
62524;BME280;53689;56.878;60.672;2022-12-29T04:04:30;99032.22;;;22.49;20.23
62524;BME280;53689;56.878;60.672;2022-12-29T04:06:57;99032.50;;;22.54;20.79
62524;BME280;53689;56.878;60.672;2022-12-29T04:09:26;99027.09;;;22.54;22.16
62524;BME280;53689;56.878;60.672;2022-12-29T04:11:54;99032.16;;;22.57;20.78
62524;BME280;53689;56.878;60.672;2022-12-29T04:14:22;99031.84;;;22.52;19.74
62524;BME280;53689;56.878;60.672;2022-12-29T04:16:49;99033.13;;;22.56;21.16
62524;BME280;53689;56.878;60.672;2022-12-29T04:19:17;99031.84;;;22.52;20.96
62524;BME280;53689;56.878;60.672;2022-12-29T04:21:47;99039.78;;;22.54;19.83
62524;BME280;53689;56.878;60.672;2022-12-29T04:24:14;99038.75;;;22.55;20.94
62524;BME280;53689;56.878;60.672;2022-12-29T04:26:45;99049.25;;;22.50;20.41
62524;BME280;53689;56.878;60.672;2022-12-29T04:29:35;99050.09;;;22.50;21.05
62524;BME280;53689;56.878;60.672;2022-12-29T04:32:21;99049.88;;;22.52;18.52
62524;BME280;53689;56.878;60.672;2022-12-29T04:34:52;99049.41;;;22.48;20.31
62524;BME280;53689;56.878;60.672;2022-12-29T04:37:21;99054.47;;;22.51;20.50
62524;BME280;53689;56.878;60.672;2022-12-29T04:39:49;99048.03;;;22.52;19.23
62524;BME280;53689;56.878;60.672;2022-12-29T04:42:17;99045.72;;;22.49;19.75
62524;BME280;53689;56.878;60.672;2022-12-29T04:44:45;99048.41;;;22.49;19.60
62524;BME280;53689;56.878;60.672;2022-12-29T04:47:33;99047.72;;;22.47;20.36
62524;BME280;53689;56.878;60.672;2022-12-29T04:50:23;99057.63;;;22.55;20.82
62524;BME280;53689;56.878;60.672;2022-12-29T04:53:06;99054.00;;;22.63;20.81
62524;BME280;53689;56.878;60.672;2022-12-29T04:55:35;99054.56;;;22.58;22.15
62524;BME280;53689;56.878;60.672;2022-12-29T04:58:03;99055.59;;;22.57;20.62
62524;BME280;53689;56.878;60.672;2022-12-29T05:00:32;99054.47;;;22.51;20.12
62524;BME280;53689;56.878;60.672;2022-12-29T05:03:00;99057.84;;;22.30;19.17
62524;BME280;53689;56.878;60.672;2022-12-29T05:05:29;99057.94;;;21.98;19.00
62524;BME280;53689;56.878;60.672;2022-12-29T05:07:58;99066.41;;;22.34;18.68
62524;BME280;53689;56.878;60.672;2022-12-29T05:10:28;99062.50;;;22.36;16.74
62524;BME280;53689;56.878;60.672;2022-12-29T05:12:59;99061.41;;;22.45;19.15
62524;BME280;53689;56.878;60.672;2022-12-29T05:15:27;99068.00;;;22.43;18.34
62524;BME280;53689;56.878;60.672;2022-12-29T05:17:54;99063.25;;;22.45;20.68
62524;BME280;53689;56.878;60.672;2022-12-29T05:20:22;99066.31;;;22.42;18.30
62524;BME280;53689;56.878;60.672;2022-12-29T05:22:50;99072.84;;;22.48;17.89
62524;BME280;53689;56.878;60.672;2022-12-29T05:25:18;99062.72;;;22.50;20.51
62524;BME280;53689;56.878;60.672;2022-12-29T05:28:19;99063.59;;;22.50;21.39
62524;BME280;53689;56.878;60.672;2022-12-29T05:30:56;99067.56;;;22.54;21.13
62524;BME280;53689;56.878;60.672;2022-12-29T05:33:24;99061.59;;;22.44;18.61
62524;BME280;53689;56.878;60.672;2022-12-29T05:35:52;99067.44;;;22.48;20.16
62524;BME280;53689;56.878;60.672;2022-12-29T05:38:20;99072.63;;;22.57;20.94
62524;BME280;53689;56.878;60.672;2022-12-29T05:40:49;99069.94;;;22.57;20.54
62524;BME280;53689;56.878;60.672;2022-12-29T05:43:40;99075.31;;;22.57;21.89
62524;BME280;53689;56.878;60.672;2022-12-29T05:46:26;99069.72;;;22.59;22.08
62524;BME280;53689;56.878;60.672;2022-12-29T05:49:12;99076.53;;;22.70;21.99
62524;BME280;53689;56.878;60.672;2022-12-29T05:51:56;99064.41;;;22.66;21.85
62524;BME280;53689;56.878;60.672;2022-12-29T05:54:23;99074.75;;;22.62;21.05
62524;BME280;53689;56.878;60.672;2022-12-29T05:56:51;99071.94;;;22.55;19.34
62524;BME280;53689;56.878;60.672;2022-12-29T05:59:21;99068.34;;;22.63;18.68
62524;BME280;53689;56.878;60.672;2022-12-29T06:01:50;99064.78;;;22.63;22.25
62524;BME280;53689;56.878;60.672;2022-12-29T06:04:18;99067.03;;;22.59;20.41
62524;BME280;53689;56.878;60.672;2022-12-29T06:06:47;99061.06;;;22.64;21.88
62524;BME280;53689;56.878;60.672;2022-12-29T06:09:33;99069.16;;;22.64;20.79
62524;BME280;53689;56.878;60.672;2022-12-29T06:12:03;99064.31;;;22.59;20.86
62524;BME280;53689;56.878;60.672;2022-12-29T06:14:33;99069.81;;;22.66;22.37
62524;BME280;53689;56.878;60.672;2022-12-29T06:17:02;99067.88;;;22.59;19.07
62524;BME280;53689;56.878;60.672;2022-12-29T06:19:31;99066.94;;;22.67;22.54
62524;BME280;53689;56.878;60.672;2022-12-29T06:21:59;99067.78;;;22.68;21.60
62524;BME280;53689;56.878;60.672;2022-12-29T06:24:27;99057.16;;;22.66;21.43
62524;BME280;53689;56.878;60.672;2022-12-29T06:26:55;99050.75;;;22.67;21.71
62524;BME280;53689;56.878;60.672;2022-12-29T06:29:22;99057.34;;;22.65;21.38
62524;BME280;53689;56.878;60.672;2022-12-29T06:31:51;99054.66;;;22.65;21.29
62524;BME280;53689;56.878;60.672;2022-12-29T06:34:19;99049.88;;;22.67;20.98
62524;BME280;53689;56.878;60.672;2022-12-29T06:36:47;99054.94;;;22.70;21.34
62524;BME280;53689;56.878;60.672;2022-12-29T06:39:14;99050.56;;;22.69;21.29
62524;BME280;53689;56.878;60.672;2022-12-29T06:41:52;99051.38;;;22.69;21.98
62524;BME280;53689;56.878;60.672;2022-12-29T06:44:39;99059.50;;;22.69;21.92
62524;BME280;53689;56.878;60.672;2022-12-29T06:47:10;99056.78;;;22.69;22.38
62524;BME280;53689;56.878;60.672;2022-12-29T06:49:38;99056.63;;;22.71;21.67
62524;BME280;53689;56.878;60.672;2022-12-29T06:52:06;99055.59;;;22.72;21.42
62524;BME280;53689;56.878;60.672;2022-12-29T06:54:39;99052.88;;;22.72;21.12
62524;BME280;53689;56.878;60.672;2022-12-29T06:57:06;99056.31;;;22.66;19.58
62524;BME280;53689;56.878;60.672;2022-12-29T06:59:34;99056.06;;;22.61;19.15
62524;BME280;53689;56.878;60.672;2022-12-29T07:02:02;99053.25;;;22.69;21.66
62524;BME280;53689;56.878;60.672;2022-12-29T07:04:31;99051.22;;;22.71;21.59
62524;BME280;53689;56.878;60.672;2022-12-29T07:06:59;99060.34;;;22.70;20.82
62524;BME280;53689;56.878;60.672;2022-12-29T07:09:27;99056.13;;;22.67;19.82
62524;BME280;53689;56.878;60.672;2022-12-29T07:11:55;99057.00;;;22.68;20.90
62524;BME280;53689;56.878;60.672;2022-12-29T07:14:23;99050.91;;;22.66;19.25
62524;BME280;53689;56.878;60.672;2022-12-29T07:16:51;99058.00;;;22.67;20.41
62524;BME280;53689;56.878;60.672;2022-12-29T07:19:19;99052.78;;;22.65;21.65
62524;BME280;53689;56.878;60.672;2022-12-29T07:21:48;99058.66;;;22.69;21.20
62524;BME280;53689;56.878;60.672;2022-12-29T07:24:16;99053.25;;;22.69;21.19
62524;BME280;53689;56.878;60.672;2022-12-29T07:26:43;99056.44;;;22.72;22.13
62524;BME280;53689;56.878;60.672;2022-12-29T07:29:11;99056.44;;;22.72;22.21
62524;BME280;53689;56.878;60.672;2022-12-29T07:31:39;99055.59;;;22.72;19.97
62524;BME280;53689;56.878;60.672;2022-12-29T07:34:08;99057.25;;;22.73;22.25
62524;BME280;53689;56.878;60.672;2022-12-29T07:36:35;99055.19;;;22.60;19.01
62524;BME280;53689;56.878;60.672;2022-12-29T07:39:04;99064.78;;;22.63;21.95
62524;BME280;53689;56.878;60.672;2022-12-29T07:41:32;99064.41;;;22.66;21.08
62524;BME280;53689;56.878;60.672;2022-12-29T07:44:01;99065.66;;;22.63;21.27
62524;BME280;53689;56.878;60.672;2022-12-29T07:46:38;99054.94;;;22.70;21.80
62524;BME280;53689;56.878;60.672;2022-12-29T07:49:23;99056.69;;;22.63;21.76
62524;BME280;53689;56.878;60.672;2022-12-29T07:51:51;99062.41;;;22.68;22.18
62524;BME280;53689;56.878;60.672;2022-12-29T07:54:20;99055.50;;;22.65;21.59
62524;BME280;53689;56.878;60.672;2022-12-29T07:56:47;99066.66;;;22.62;21.87
62524;BME280;53689;56.878;60.672;2022-12-29T07:59:15;99054.38;;;22.59;20.02
62524;BME280;53689;56.878;60.672;2022-12-29T08:01:42;99057.25;;;22.58;21.83
62524;BME280;53689;56.878;60.672;2022-12-29T08:04:10;99054.00;;;22.63;22.49
62524;BME280;53689;56.878;60.672;2022-12-29T08:06:39;99055.03;;;22.62;21.24
62524;BME280;53689;56.878;60.672;2022-12-29T08:09:07;99057.91;;;22.60;20.19
62524;BME280;53689;56.878;60.672;2022-12-29T08:11:45;99057.25;;;22.58;18.19
62524;BME280;53689;56.878;60.672;2022-12-29T08:14:13;99057.25;;;22.58;20.07
62524;BME280;53689;56.878;60.672;2022-12-29T08:16:41;99052.25;;;22.55;22.03
62524;BME280;53689;56.878;60.672;2022-12-29T08:19:10;99061.34;;;22.54;20.00
62524;BME280;53689;56.878;60.672;2022-12-29T08:21:38;99055.09;;;22.53;21.05
62524;BME280;53689;56.878;60.672;2022-12-29T08:24:06;99054.63;;;22.50;18.38
62524;BME280;53689;56.878;60.672;2022-12-29T08:26:35;99052.41;;;22.53;19.89
62524;BME280;53689;56.878;60.672;2022-12-29T08:29:04;99050.91;;;22.51;19.98
62524;BME280;53689;56.878;60.672;2022-12-29T08:31:31;99048.75;;;22.46;18.07
62524;BME280;53689;56.878;60.672;2022-12-29T08:33:59;99056.06;;;22.61;21.31
62524;BME280;53689;56.878;60.672;2022-12-29T08:36:27;99051.78;;;22.66;21.29
62524;BME280;53689;56.878;60.672;2022-12-29T08:38:54;99052.16;;;22.63;21.38
62524;BME280;53689;56.878;60.672;2022-12-29T08:41:22;99056.63;;;22.71;22.25
62524;BME280;53689;56.878;60.672;2022-12-29T08:43:50;99058.44;;;22.55;18.23
62524;BME280;53689;56.878;60.672;2022-12-29T08:46:19;99054.38;;;22.59;21.15
62524;BME280;53689;56.878;60.672;2022-12-29T08:48:47;99063.22;;;22.68;21.43
62524;BME280;53689;56.878;60.672;2022-12-29T08:51:14;99061.38;;;22.69;22.06
62524;BME280;53689;56.878;60.672;2022-12-29T08:53:47;99062.19;;;22.69;22.24
62524;BME280;53689;56.878;60.672;2022-12-29T08:56:15;99060.34;;;22.70;20.13
62524;BME280;53689;56.878;60.672;2022-12-29T08:58:48;99065.09;;;22.68;21.34
62524;BME280;53689;56.878;60.672;2022-12-29T09:01:19;99059.56;;;22.61;18.57
62524;BME280;53689;56.878;60.672;2022-12-29T09:03:47;99063.03;;;22.55;20.33
62524;BME280;53689;56.878;60.672;2022-12-29T09:06:35;99067.41;;;22.56;18.84
62524;BME280;53689;56.878;60.672;2022-12-29T09:09:06;99066.56;;;22.55;19.69
62524;BME280;53689;56.878;60.672;2022-12-29T09:11:34;99064.53;;;22.57;21.35
62524;BME280;53689;56.878;60.672;2022-12-29T09:14:02;99067.56;;;22.54;18.13
62524;BME280;53689;56.878;60.672;2022-12-29T09:16:31;99066.75;;;22.54;18.46
62524;BME280;53689;56.878;60.672;2022-12-29T09:18:59;99067.22;;;22.57;20.49
62524;BME280;53689;56.878;60.672;2022-12-29T09:21:26;99063.84;;;22.55;19.67
62524;BME280;53689;56.878;60.672;2022-12-29T09:23:54;99055.97;;;22.54;17.36
62524;BME280;53689;56.878;60.672;2022-12-29T09:26:22;99065.19;;;22.59;17.32
62524;BME280;53689;56.878;60.672;2022-12-29T09:28:50;99063.13;;;22.62;21.00
62524;BME280;53689;56.878;60.672;2022-12-29T09:31:17;99060.69;;;22.67;21.17
62524;BME280;53689;56.878;60.672;2022-12-29T09:33:47;99053.63;;;22.66;19.50
62524;BME280;53689;56.878;60.672;2022-12-29T09:36:14;99062.75;;;22.65;18.93
62524;BME280;53689;56.878;60.672;2022-12-29T09:38:42;99057.91;;;22.60;17.96
62524;BME280;53689;56.878;60.672;2022-12-29T09:41:15;99058.53;;;22.62;16.45
62524;BME280;53689;56.878;60.672;2022-12-29T09:43:54;99065.72;;;22.70;22.12
62524;BME280;53689;56.878;60.672;2022-12-29T09:46:28;99063.50;;;22.73;19.46
62524;BME280;53689;56.878;60.672;2022-12-29T09:49:06;99054.94;;;22.70;18.45
62524;BME280;53689;56.878;60.672;2022-12-29T09:51:37;99058.28;;;22.72;18.22
62524;BME280;53689;56.878;60.672;2022-12-29T09:54:22;99061.53;;;22.67;18.14
62524;BME280;53689;56.878;60.672;2022-12-29T09:56:52;99052.59;;;22.67;18.67
62524;BME280;53689;56.878;60.672;2022-12-29T09:59:22;99048.59;;;22.63;17.26
62524;BME280;53689;56.878;60.672;2022-12-29T10:01:57;99052.59;;;22.52;17.61
62524;BME280;53689;56.878;60.672;2022-12-29T10:04:29;99043.84;;;22.50;19.41
62524;BME280;53689;56.878;60.672;2022-12-29T10:07:02;99039.94;;;22.52;19.29
62524;BME280;53689;56.878;60.672;2022-12-29T10:10:01;99039.84;;;22.61;17.34
62524;BME280;53689;56.878;60.672;2022-12-29T10:12:45;99036.03;;;22.55;17.63
62524;BME280;53689;56.878;60.672;2022-12-29T10:15:39;99035.91;;;22.48;17.92
62524;BME280;53689;56.878;60.672;2022-12-29T10:18:22;99038.78;;;22.47;19.71
62524;BME280;53689;56.878;60.672;2022-12-29T10:20:58;99038.09;;;22.53;17.78
62524;BME280;53689;56.878;60.672;2022-12-29T10:23:31;99037.25;;;22.52;16.79
62524;BME280;53689;56.878;60.672;2022-12-29T10:26:02;99032.50;;;22.54;18.44
62524;BME280;53689;56.878;60.672;2022-12-29T10:28:35;99037.97;;;22.61;20.25
62524;BME280;53689;56.878;60.672;2022-12-29T10:31:09;99035.28;;;22.61;20.88
62524;BME280;53689;56.878;60.672;2022-12-29T10:33:41;99038.38;;;22.58;18.86
62524;BME280;53689;56.878;60.672;2022-12-29T10:36:16;99047.19;;;22.67;20.82
62524;BME280;53689;56.878;60.672;2022-12-29T10:38:49;99045.81;;;22.71;20.85
62524;BME280;53689;56.878;60.672;2022-12-29T10:41:23;99037.34;;;22.74;21.00
62524;BME280;53689;56.878;60.672;2022-12-29T10:43:54;99050.84;;;22.74;22.01
62524;BME280;53689;56.878;60.672;2022-12-29T10:46:27;99041.63;;;22.68;21.46
62524;BME280;53689;56.878;60.672;2022-12-29T10:48:56;99045.81;;;22.71;20.14
62524;BME280;53689;56.878;60.672;2022-12-29T10:51:27;99051.59;;;22.68;21.69
62524;BME280;53689;56.878;60.672;2022-12-29T10:54:00;99050.19;;;22.72;21.28
62524;BME280;53689;56.878;60.672;2022-12-29T10:56:34;99045.25;;;22.61;18.75
62524;BME280;53689;56.878;60.672;2022-12-29T10:59:10;99050.66;;;22.61;21.44
62524;BME280;53689;56.878;60.672;2022-12-29T11:01:49;99048.78;;;22.61;21.96
62524;BME280;53689;56.878;60.672;2022-12-29T11:04:32;99052.59;;;22.67;21.60
62524;BME280;53689;56.878;60.672;2022-12-29T11:07:04;99049.88;;;22.67;22.22
62524;BME280;53689;56.878;60.672;2022-12-29T11:09:43;99059.13;;;22.72;20.54
62524;BME280;53689;56.878;60.672;2022-12-29T11:12:20;99050.00;;;22.73;21.58
62524;BME280;53689;56.878;60.672;2022-12-29T11:15:01;99051.47;;;22.76;22.66
62524;BME280;53689;56.878;60.672;2022-12-29T11:17:29;99036.78;;;22.64;20.03
62524;BME280;53689;56.878;60.672;2022-12-29T11:19:57;99041.69;;;22.75;21.25
62524;BME280;53689;56.878;60.672;2022-12-29T11:22:27;99045.06;;;22.77;22.48
62524;BME280;53689;56.878;60.672;2022-12-29T11:25:06;99050.47;;;22.77;22.05
62524;BME280;53689;56.878;60.672;2022-12-29T11:27:38;99057.56;;;22.78;21.09
62524;BME280;53689;56.878;60.672;2022-12-29T11:30:22;99051.13;;;22.79;22.64
62524;BME280;53689;56.878;60.672;2022-12-29T11:32:52;99053.19;;;22.77;21.79
62524;BME280;53689;56.878;60.672;2022-12-29T11:35:31;99050.28;;;22.79;21.87
62524;BME280;53689;56.878;60.672;2022-12-29T11:38:02;99048.78;;;22.76;22.34
62524;BME280;53689;56.878;60.672;2022-12-29T11:40:31;99050.00;;;22.73;21.28
62524;BME280;53689;56.878;60.672;2022-12-29T11:43:05;99052.72;;;22.73;20.14
62524;BME280;53689;56.878;60.672;2022-12-29T11:45:35;99042.72;;;22.74;21.56
62524;BME280;53689;56.878;60.672;2022-12-29T11:48:07;99048.13;;;22.74;21.69
62524;BME280;53689;56.878;60.672;2022-12-29T11:50:39;99055.19;;;22.75;21.19
62524;BME280;53689;56.878;60.672;2022-12-29T11:53:16;99046.53;;;22.80;22.04
62524;BME280;53689;56.878;60.672;2022-12-29T11:55:54;99053.19;;;22.77;21.60
62524;BME280;53689;56.878;60.672;2022-12-29T11:58:28;99058.38;;;22.79;19.66
62524;BME280;53689;56.878;60.672;2022-12-29T12:00:57;99059.22;;;22.79;21.45
62524;BME280;53689;56.878;60.672;2022-12-29T12:03:29;99060.03;;;22.80;21.79
62524;BME280;53689;56.878;60.672;2022-12-29T12:06:00;99064.16;;;22.76;21.77
62524;BME280;53689;56.878;60.672;2022-12-29T12:08:35;99057.09;;;22.75;21.69
62524;BME280;53689;56.878;60.672;2022-12-29T12:11:09;99062.28;;;22.76;21.54
62524;BME280;53689;56.878;60.672;2022-12-29T12:13:43;99061.72;;;22.81;21.81
62524;BME280;53689;56.878;60.672;2022-12-29T12:16:15;99069.00;;;22.80;21.39
62524;BME280;53689;56.878;60.672;2022-12-29T12:18:51;99059.22;;;22.79;20.32
62524;BME280;53689;56.878;60.672;2022-12-29T12:21:23;99064.63;;;22.79;20.62
62524;BME280;53689;56.878;60.672;2022-12-29T12:24:18;99069.81;;;22.81;22.48
62524;BME280;53689;56.878;60.672;2022-12-29T12:26:57;99061.91;;;22.79;22.20
62524;BME280;53689;56.878;60.672;2022-12-29T12:29:34;99061.06;;;22.79;19.97
62524;BME280;53689;56.878;60.672;2022-12-29T12:32:11;99060.91;;;22.80;22.12
62524;BME280;53689;56.878;60.672;2022-12-29T12:34:43;99065.44;;;22.80;21.85
62524;BME280;53689;56.878;60.672;2022-12-29T12:37:36;99067.97;;;22.81;21.02
62524;BME280;53689;56.878;60.672;2022-12-29T12:40:32;99068.59;;;22.83;21.36
62524;BME280;53689;56.878;60.672;2022-12-29T12:43:17;99055.50;;;22.80;21.02
62524;BME280;53689;56.878;60.672;2022-12-29T12:45:58;99052.78;;;22.80;21.52
62524;BME280;53689;56.878;60.672;2022-12-29T12:48:44;99064.41;;;22.81;21.33
62524;BME280;53689;56.878;60.672;2022-12-29T12:51:27;99052.50;;;22.22;22.92
62524;BME280;53689;56.878;60.672;2022-12-29T12:54:09;99054.63;;;22.50;21.80
62524;BME280;53689;56.878;60.672;2022-12-29T12:56:56;99053.34;;;22.61;20.71
62524;BME280;53689;56.878;60.672;2022-12-29T12:59:39;99055.75;;;22.70;21.09
62524;BME280;53689;56.878;60.672;2022-12-29T13:02:19;99052.31;;;22.62;19.91
62524;BME280;53689;56.878;60.672;2022-12-29T13:05:14;99051.69;;;22.75;21.95
62524;BME280;53689;56.878;60.672;2022-12-29T13:08:05;99054.09;;;22.69;20.37
62524;BME280;53689;56.878;60.672;2022-12-29T13:10:42;99052.25;;;22.70;21.87
62524;BME280;53689;56.878;60.672;2022-12-29T13:13:38;99051.22;;;22.71;19.55
62524;BME280;53689;56.878;60.672;2022-12-29T13:16:15;99053.75;;;22.72;20.59
62524;BME280;53689;56.878;60.672;2022-12-29T13:19:03;99058.38;;;22.79;22.40
62524;BME280;53689;56.878;60.672;2022-12-29T13:21:47;99054.38;;;22.75;21.22